sensor_id;sensor_type;location;lat;lon;timestamp;pressure;altitude;pressure_sealevel;temperature;humidity
76122;BME280;70471;53.200;6.080;2023-09-19T00:03:17;100439.25;;;22.22;53.57
76122;BME280;70471;53.200;6.080;2023-09-19T00:08:08;100442.69;;;22.19;53.51
76122;BME280;70471;53.200;6.080;2023-09-19T00:13:01;100454.09;;;22.17;53.78
76122;BME280;70471;53.200;6.080;2023-09-19T00:17:55;100453.28;;;22.17;53.60
76122;BME280;70471;53.200;6.080;2023-09-19T00:22:47;100460.31;;;22.14;53.56
76122;BME280;70471;53.200;6.080;2023-09-19T00:27:39;100471.41;;;22.14;53.53
76122;BME280;70471;53.200;6.080;2023-09-19T00:32:33;100465.03;;;22.14;53.26
76122;BME280;70471;53.200;6.080;2023-09-19T00:37:25;100472.88;;;22.12;53.40
76122;BME280;70471;53.200;6.080;2023-09-19T00:42:17;100471.25;;;22.11;53.59
76122;BME280;70471;53.200;6.080;2023-09-19T00:47:09;100473.53;;;22.09;53.40
76122;BME280;70471;53.200;6.080;2023-09-19T00:52:06;100482.19;;;22.07;53.60
76122;BME280;70471;53.200;6.080;2023-09-19T00:57:00;100483.31;;;22.06;53.47
76122;BME280;70471;53.200;6.080;2023-09-19T01:01:52;100500.28;;;22.05;53.45
76122;BME280;70471;53.200;6.080;2023-09-19T01:06:44;100500.28;;;22.05;53.62
76122;BME280;70471;53.200;6.080;2023-09-19T01:11:40;100498.66;;;22.04;53.22
76122;BME280;70471;53.200;6.080;2023-09-19T01:16:36;100499.31;;;22.01;53.31
76122;BME280;70471;53.200;6.080;2023-09-19T01:21:39;100505.50;;;21.97;53.40
76122;BME280;70471;53.200;6.080;2023-09-19T01:26:55;100510.41;;;22.01;53.17
76122;BME280;70471;53.200;6.080;2023-09-19T01:31:53;100511.06;;;21.97;53.08
76122;BME280;70471;53.200;6.080;2023-09-19T01:36:45;100519.69;;;21.96;53.30
76122;BME280;70471;53.200;6.080;2023-09-19T01:41:57;100525.25;;;21.96;52.90
76122;BME280;70471;53.200;6.080;2023-09-19T01:46:58;100524.72;;;21.94;53.11
76122;BME280;70471;53.200;6.080;2023-09-19T01:51:58;100525.03;;;21.92;53.12
76122;BME280;70471;53.200;6.080;2023-09-19T01:57:01;100523.44;;;21.91;52.81
76122;BME280;70471;53.200;6.080;2023-09-19T02:01:56;100516.56;;;21.89;53.00
76122;BME280;70471;53.200;6.080;2023-09-19T02:06:51;100512.19;;;21.88;53.17
76122;BME280;70471;53.200;6.080;2023-09-19T02:11:42;100516.88;;;21.87;52.81
76122;BME280;70471;53.200;6.080;2023-09-19T02:16:33;100509.72;;;21.86;52.81
76122;BME280;70471;53.200;6.080;2023-09-19T02:21:26;100519.16;;;21.85;53.03
76122;BME280;70471;53.200;6.080;2023-09-19T02:26:19;100523.06;;;21.84;52.68
76122;BME280;70471;53.200;6.080;2023-09-19T02:31:11;100517.03;;;21.82;52.88
76122;BME280;70471;53.200;6.080;2023-09-19T02:36:02;100530.09;;;21.81;52.79
76122;BME280;70471;53.200;6.080;2023-09-19T02:40:57;100522.91;;;21.80;52.21
76122;BME280;70471;53.200;6.080;2023-09-19T02:45:49;100523.34;;;21.74;52.62
76122;BME280;70471;53.200;6.080;2023-09-19T02:50:43;100533.81;;;21.77;52.86
76122;BME280;70471;53.200;6.080;2023-09-19T02:55:34;100537.69;;;21.76;52.85
76122;BME280;70471;53.200;6.080;2023-09-19T03:00:29;100532.47;;;21.74;52.67
76122;BME280;70471;53.200;6.080;2023-09-19T03:05:22;100521.69;;;21.73;52.18
76122;BME280;70471;53.200;6.080;2023-09-19T03:10:13;100518.44;;;21.71;52.50
76122;BME280;70471;53.200;6.080;2023-09-19T03:15:06;100533.91;;;21.72;52.44
76122;BME280;70471;53.200;6.080;2023-09-19T03:20:01;100548.09;;;21.70;52.37
76122;BME280;70471;53.200;6.080;2023-09-19T03:24:52;100542.91;;;21.69;52.31
76122;BME280;70471;53.200;6.080;2023-09-19T03:29:44;100542.38;;;21.67;52.44
76122;BME280;70471;53.200;6.080;2023-09-19T03:34:36;100542.72;;;21.65;52.23
76122;BME280;70471;53.200;6.080;2023-09-19T03:39:28;100545.81;;;21.63;52.31
76122;BME280;70471;53.200;6.080;2023-09-19T03:44:20;100545.00;;;21.63;52.34
76122;BME280;70471;53.200;6.080;2023-09-19T03:49:12;100549.72;;;21.62;52.21
76122;BME280;70471;53.200;6.080;2023-09-19T03:54:04;100550.38;;;21.59;52.36
76122;BME280;70471;53.200;6.080;2023-09-19T03:58:57;100561.47;;;21.59;52.20
76122;BME280;70471;53.200;6.080;2023-09-19T04:03:48;100545.94;;;21.58;52.37
76122;BME280;70471;53.200;6.080;2023-09-19T04:08:42;100558.16;;;21.57;52.49
76122;BME280;70471;53.200;6.080;2023-09-19T04:13:34;100549.34;;;21.55;52.40
76122;BME280;70471;53.200;6.080;2023-09-19T04:18:27;100550.47;;;21.54;52.37
76122;BME280;70471;53.200;6.080;2023-09-19T04:23:21;100564.34;;;21.54;51.96
76122;BME280;70471;53.200;6.080;2023-09-19T04:28:12;100557.19;;;21.53;52.41
76122;BME280;70471;53.200;6.080;2023-09-19T04:33:04;100572.16;;;21.52;52.18
76122;BME280;70471;53.200;6.080;2023-09-19T04:37:57;100579.69;;;21.52;52.25
76122;BME280;70471;53.200;6.080;2023-09-19T04:42:53;100566.13;;;21.50;51.95
76122;BME280;70471;53.200;6.080;2023-09-19T04:47:46;100576.72;;;21.48;52.22
76122;BME280;70471;53.200;6.080;2023-09-19T04:52:38;100582.28;;;21.48;51.85
76122;BME280;70471;53.200;6.080;2023-09-19T04:57:31;100574.28;;;21.47;52.31
76122;BME280;70471;53.200;6.080;2023-09-19T05:02:23;100577.38;;;21.45;51.92
76122;BME280;70471;53.200;6.080;2023-09-19T05:07:14;100580.44;;;21.43;52.10
76122;BME280;70471;53.200;6.080;2023-09-19T05:12:06;100589.09;;;21.42;51.94
76122;BME280;70471;53.200;6.080;2023-09-19T05:16:59;100582.69;;;21.41;51.72
76122;BME280;70471;53.200;6.080;2023-09-19T05:21:50;100591.34;;;21.40;51.78
76122;BME280;70471;53.200;6.080;2023-09-19T05:26:42;100588.88;;;21.38;51.69
76122;BME280;70471;53.200;6.080;2023-09-19T05:31:33;100590.34;;;21.36;51.70
76122;BME280;70471;53.200;6.080;2023-09-19T05:36:28;100589.50;;;21.35;51.70
76122;BME280;70471;53.200;6.080;2023-09-19T05:41:20;100593.44;;;21.34;52.01
76122;BME280;70471;53.200;6.080;2023-09-19T05:46:11;100590.97;;;21.33;51.65
76122;BME280;70471;53.200;6.080;2023-09-19T05:51:02;100592.94;;;21.32;52.02
76122;BME280;70471;53.200;6.080;2023-09-19T05:55:55;100619.31;;;21.30;51.80
76122;BME280;70471;53.200;6.080;2023-09-19T06:00:47;100621.78;;;21.31;51.76
76122;BME280;70471;53.200;6.080;2023-09-19T06:05:39;100616.56;;;21.30;51.67
76122;BME280;70471;53.200;6.080;2023-09-19T06:10:31;100621.59;;;21.27;51.67
76122;BME280;70471;53.200;6.080;2023-09-19T06:15:24;100625.50;;;21.26;51.95
76122;BME280;70471;53.200;6.080;2023-09-19T06:20:16;100623.84;;;21.25;51.56
76122;BME280;70471;53.200;6.080;2023-09-19T06:25:08;100619.94;;;21.26;51.43
76122;BME280;70471;53.200;6.080;2023-09-19T06:30:01;100618.31;;;21.25;51.66
76122;BME280;70471;53.200;6.080;2023-09-19T06:34:54;100625.19;;;21.28;51.90
76122;BME280;70471;53.200;6.080;2023-09-19T06:39:46;100622.59;;;21.32;51.81
76122;BME280;70471;53.200;6.080;2023-09-19T06:44:38;100619.81;;;21.32;51.74
76122;BME280;70471;53.200;6.080;2023-09-19T06:49:29;100616.41;;;21.35;51.91
76122;BME280;70471;53.200;6.080;2023-09-19T06:54:22;100629.47;;;21.34;51.52
76122;BME280;70471;53.200;6.080;2023-09-19T06:59:13;100628.13;;;21.32;51.52
76122;BME280;70471;53.200;6.080;2023-09-19T07:04:05;100629.78;;;21.33;51.58
76122;BME280;70471;53.200;6.080;2023-09-19T07:08:56;100636.44;;;21.32;51.21
76122;BME280;70471;53.200;6.080;2023-09-19T07:13:49;100630.91;;;21.32;51.42
76122;BME280;70471;53.200;6.080;2023-09-19T07:18:40;100648.03;;;21.34;51.09
76122;BME280;70471;53.200;6.080;2023-09-19T07:23:34;100634.16;;;21.34;51.32
76122;BME280;70471;53.200;6.080;2023-09-19T07:28:26;100640.06;;;21.32;51.29
76122;BME280;70471;53.200;6.080;2023-09-19T07:33:19;100643.31;;;21.34;50.95
76122;BME280;70471;53.200;6.080;2023-09-19T07:38:11;100640.22;;;21.36;50.82
76122;BME280;70471;53.200;6.080;2023-09-19T07:43:03;100649.66;;;21.35;50.93
76122;BME280;70471;53.200;6.080;2023-09-19T07:47:54;100644.13;;;21.35;51.12
76122;BME280;70471;53.200;6.080;2023-09-19T07:52:47;100649.66;;;21.35;50.97
76122;BME280;70471;53.200;6.080;2023-09-19T07:57:41;100639.72;;;21.34;50.88
76122;BME280;70471;53.200;6.080;2023-09-19T08:02:34;100645.78;;;21.36;50.94
76122;BME280;70471;53.200;6.080;2023-09-19T08:07:28;100633.84;;;21.35;50.64
76122;BME280;70471;53.200;6.080;2023-09-19T08:12:21;100633.84;;;21.35;50.83
76122;BME280;70471;53.200;6.080;2023-09-19T08:17:14;100641.84;;;21.37;50.76
76122;BME280;70471;53.200;6.080;2023-09-19T08:22:05;100637.94;;;21.38;50.70
76122;BME280;70471;53.200;6.080;2023-09-19T08:26:57;100639.06;;;21.37;50.57
76122;BME280;70471;53.200;6.080;2023-09-19T08:31:50;100636.63;;;21.35;51.03
76122;BME280;70471;53.200;6.080;2023-09-19T08:36:41;100635.50;;;21.36;50.59
76122;BME280;70471;53.200;6.080;2023-09-19T08:41:35;100642.38;;;21.39;50.55
76122;BME280;70471;53.200;6.080;2023-09-19T08:46:30;100626.56;;;21.39;50.67
76122;BME280;70471;53.200;6.080;2023-09-19T08:51:27;100621.78;;;21.31;50.52
76122;BME280;70471;53.200;6.080;2023-09-19T08:56:22;100648.91;;;21.43;50.81
76122;BME280;70471;53.200;6.080;2023-09-19T09:01:17;100639.47;;;21.44;50.26
76122;BME280;70471;53.200;6.080;2023-09-19T09:06:14;100654.13;;;21.44;50.57
76122;BME280;70471;53.200;6.080;2023-09-19T09:11:08;100652.69;;;21.47;50.22
76122;BME280;70471;53.200;6.080;2023-09-19T09:15:59;100627.19;;;21.36;50.76
76122;BME280;70471;53.200;6.080;2023-09-19T09:20:51;100637.72;;;21.48;50.52
76122;BME280;70471;53.200;6.080;2023-09-19T09:25:47;100630.22;;;21.49;50.36
76122;BME280;70471;53.200;6.080;2023-09-19T09:30:41;100619.94;;;21.49;50.33
76122;BME280;70471;53.200;6.080;2023-09-19T09:35:33;100629.09;;;21.50;50.27
76122;BME280;70471;53.200;6.080;2023-09-19T09:40:47;100627.94;;;21.51;50.15
76122;BME280;70471;53.200;6.080;2023-09-19T09:45:43;100624.03;;;21.52;49.72
76122;BME280;70471;53.200;6.080;2023-09-19T09:50:46;100629.56;;;21.52;49.93
76122;BME280;70471;53.200;6.080;2023-09-19T09:55:59;100617.31;;;21.53;50.03
76122;BME280;70471;53.200;6.080;2023-09-19T10:00:55;100616.53;;;21.52;50.03
76122;BME280;70471;53.200;6.080;2023-09-19T10:05:52;100613.25;;;21.50;49.83
76122;BME280;70471;53.200;6.080;2023-09-19T10:10:45;100611.63;;;21.49;49.94
76122;BME280;70471;53.200;6.080;2023-09-19T10:15:49;100595.81;;;21.50;50.22
76122;BME280;70471;53.200;6.080;2023-09-19T10:20:44;100594.66;;;21.51;50.34
76122;BME280;70471;53.200;6.080;2023-09-19T10:25:37;100589.59;;;21.53;50.13
76122;BME280;70471;53.200;6.080;2023-09-19T10:30:29;100578.53;;;21.53;50.21
76122;BME280;70471;53.200;6.080;2023-09-19T10:35:22;100576.28;;;21.55;49.72
76122;BME280;70471;53.200;6.080;2023-09-19T10:40:16;100580.66;;;21.56;49.94
76122;BME280;70471;53.200;6.080;2023-09-19T10:45:09;100582.31;;;21.57;50.17
76122;BME280;70471;53.200;6.080;2023-09-19T10:50:05;100559.97;;;21.53;50.46
76122;BME280;70471;53.200;6.080;2023-09-19T10:55:01;100578.88;;;21.51;50.09
76122;BME280;70471;53.200;6.080;2023-09-19T11:00:05;100569.53;;;21.47;50.12
76122;BME280;70471;53.200;6.080;2023-09-19T11:05:13;100564.16;;;21.51;50.18
76122;BME280;70471;53.200;6.080;2023-09-19T11:10:05;100555.84;;;21.51;50.28
76122;BME280;70471;53.200;6.080;2023-09-19T11:15:01;100554.91;;;21.55;50.04
76122;BME280;70471;53.200;6.080;2023-09-19T11:20:21;100551.63;;;21.53;50.01
76122;BME280;70471;53.200;6.080;2023-09-19T11:25:41;100553.91;;;21.51;50.45
76122;BME280;70471;53.200;6.080;2023-09-19T11:30:38;100547.53;;;21.51;50.50
76122;BME280;70471;53.200;6.080;2023-09-19T11:36:02;100537.28;;;21.51;50.63
76122;BME280;70471;53.200;6.080;2023-09-19T11:46:20;100527.97;;;21.47;50.97
76122;BME280;70471;53.200;6.080;2023-09-19T11:51:15;100527.47;;;21.45;50.69
76122;BME280;70471;53.200;6.080;2023-09-19T11:56:12;100526.63;;;21.44;50.75
76122;BME280;70471;53.200;6.080;2023-09-19T12:01:05;100527.78;;;21.43;50.86
76122;BME280;70471;53.200;6.080;2023-09-19T12:06:10;100543.91;;;21.41;50.80
76122;BME280;70471;53.200;6.080;2023-09-19T12:11:04;100562.97;;;21.43;50.69
76122;BME280;70471;53.200;6.080;2023-09-19T12:16:00;100550.78;;;21.44;50.83
76122;BME280;70471;53.200;6.080;2023-09-19T12:20:52;100532.38;;;21.48;50.56
76122;BME280;70471;53.200;6.080;2023-09-19T12:25:45;100521.16;;;21.53;50.86
76122;BME280;70471;53.200;6.080;2023-09-19T12:30:40;100503.34;;;21.54;50.79
76122;BME280;70471;53.200;6.080;2023-09-19T12:35:33;100479.41;;;21.50;50.84
76122;BME280;70471;53.200;6.080;2023-09-19T12:40:25;100486.72;;;21.54;51.37
76122;BME280;70471;53.200;6.080;2023-09-19T12:45:18;100485.28;;;21.57;51.43
76122;BME280;70471;53.200;6.080;2023-09-19T12:50:13;100487.41;;;21.51;51.95
76122;BME280;70471;53.200;6.080;2023-09-19T12:55:07;100518.38;;;21.53;51.64
76122;BME280;70471;53.200;6.080;2023-09-19T13:00:01;100503.03;;;21.56;51.73
76122;BME280;70471;53.200;6.080;2023-09-19T13:04:53;100503.72;;;21.61;51.37
76122;BME280;70471;53.200;6.080;2023-09-19T13:10:06;100502.06;;;21.60;51.54
76122;BME280;70471;53.200;6.080;2023-09-19T13:15:07;100503.09;;;21.64;51.71
76122;BME280;70471;53.200;6.080;2023-09-19T13:20:01;100455.75;;;21.52;51.06
76122;BME280;70471;53.200;6.080;2023-09-19T13:24:57;100476.09;;;21.79;51.12
76122;BME280;70471;53.200;6.080;2023-09-19T13:29:50;100489.44;;;21.77;51.26
76122;BME280;70471;53.200;6.080;2023-09-19T13:34:42;100476.69;;;21.76;51.35
76122;BME280;70471;53.200;6.080;2023-09-19T13:39:33;100479.97;;;21.78;51.17
76122;BME280;70471;53.200;6.080;2023-09-19T13:44:24;100453.41;;;21.86;51.40
76122;BME280;70471;53.200;6.080;2023-09-19T13:49:20;100456.88;;;21.91;51.21
76122;BME280;70471;53.200;6.080;2023-09-19T13:54:13;100442.16;;;21.91;50.91
76122;BME280;70471;53.200;6.080;2023-09-19T13:59:05;100456.03;;;21.91;50.96
76122;BME280;70471;53.200;6.080;2023-09-19T14:03:56;100446.25;;;21.93;51.03
76122;BME280;70471;53.200;6.080;2023-09-19T14:08:49;100449.66;;;21.90;51.24
76122;BME280;70471;53.200;6.080;2023-09-19T14:13:41;100471.69;;;21.87;51.35
76122;BME280;70471;53.200;6.080;2023-09-19T14:18:37;100475.91;;;21.84;51.03
76122;BME280;70471;53.200;6.080;2023-09-19T14:23:28;100485.72;;;21.81;51.13
76122;BME280;70471;53.200;6.080;2023-09-19T14:28:21;100476.09;;;21.79;50.84
76122;BME280;70471;53.200;6.080;2023-09-19T14:33:13;100477.22;;;21.78;51.28
76122;BME280;70471;53.200;6.080;2023-09-19T14:38:05;100472.78;;;21.77;51.15
76122;BME280;70471;53.200;6.080;2023-09-19T14:42:57;100467.88;;;21.74;51.33
76122;BME280;70471;53.200;6.080;2023-09-19T14:47:50;100471.78;;;21.73;51.15
76122;BME280;70471;53.200;6.080;2023-09-19T14:52:44;100462.97;;;21.71;51.18
76122;BME280;70471;53.200;6.080;2023-09-19T14:57:36;100457.44;;;21.71;51.20
76122;BME280;70471;53.200;6.080;2023-09-19T15:02:30;100443.09;;;21.69;50.99
76122;BME280;70471;53.200;6.080;2023-09-19T15:07:23;100463.13;;;21.66;50.99
76122;BME280;70471;53.200;6.080;2023-09-19T15:12:14;100464.28;;;21.64;51.05
76122;BME280;70471;53.200;6.080;2023-09-19T15:17:07;100463.47;;;21.64;51.23
76122;BME280;70471;53.200;6.080;2023-09-19T15:21:59;100463.25;;;21.60;51.00
76122;BME280;70471;53.200;6.080;2023-09-19T15:26:51;100478.28;;;21.59;51.17
76122;BME280;70471;53.200;6.080;2023-09-19T15:31:43;100503.56;;;21.58;51.32
76122;BME280;70471;53.200;6.080;2023-09-19T15:36:34;100478.94;;;21.56;51.18
76122;BME280;70471;53.200;6.080;2023-09-19T15:41:26;100474.50;;;21.55;51.43
76122;BME280;70471;53.200;6.080;2023-09-19T15:46:19;100468.47;;;21.53;51.33
76122;BME280;70471;53.200;6.080;2023-09-19T15:51:11;100490.97;;;21.52;51.22
76122;BME280;70471;53.200;6.080;2023-09-19T15:56:05;100488.84;;;21.49;51.54
76122;BME280;70471;53.200;6.080;2023-09-19T16:00:57;100489.31;;;21.51;51.50
76122;BME280;70471;53.200;6.080;2023-09-19T16:05:49;100491.28;;;21.50;51.54
76122;BME280;70471;53.200;6.080;2023-09-19T16:10:41;100489.66;;;21.49;51.53
76122;BME280;70471;53.200;6.080;2023-09-19T16:15:33;100492.94;;;21.51;51.79
76122;BME280;70471;53.200;6.080;2023-09-19T16:20:24;100493.91;;;21.55;52.08
76122;BME280;70471;53.200;6.080;2023-09-19T16:25:17;100488.38;;;21.55;52.71
76122;BME280;70471;53.200;6.080;2023-09-19T16:30:09;100489.00;;;21.52;52.51
76122;BME280;70471;53.200;6.080;2023-09-19T16:35:00;100491.78;;;21.52;52.57
76122;BME280;70471;53.200;6.080;2023-09-19T16:39:53;100499.28;;;21.52;52.87
76122;BME280;70471;53.200;6.080;2023-09-19T16:44:45;100489.69;;;21.58;52.84
76122;BME280;70471;53.200;6.080;2023-09-19T16:49:37;100496.03;;;21.58;53.25
76122;BME280;70471;53.200;6.080;2023-09-19T16:54:28;100494.72;;;21.56;52.67
76122;BME280;70471;53.200;6.080;2023-09-19T16:59:20;100490.66;;;21.53;52.92
76122;BME280;70471;53.200;6.080;2023-09-19T17:04:15;100496.84;;;21.50;52.80
76122;BME280;70471;53.200;6.080;2023-09-19T17:09:06;100494.38;;;21.49;52.84
76122;BME280;70471;53.200;6.080;2023-09-19T17:13:59;100493.56;;;21.48;52.85
76122;BME280;70471;53.200;6.080;2023-09-19T17:18:52;100504.97;;;21.47;53.13
76122;BME280;70471;53.200;6.080;2023-09-19T17:23:45;100507.75;;;21.47;53.02
76122;BME280;70471;53.200;6.080;2023-09-19T17:28:38;100501.38;;;21.46;52.85
76122;BME280;70471;53.200;6.080;2023-09-19T17:33:30;100503.66;;;21.44;52.94
76122;BME280;70471;53.200;6.080;2023-09-19T17:38:22;100507.22;;;21.44;52.93
76122;BME280;70471;53.200;6.080;2023-09-19T17:43:14;100501.19;;;21.42;53.06
76122;BME280;70471;53.200;6.080;2023-09-19T17:48:06;100490.91;;;21.43;52.82
76122;BME280;70471;53.200;6.080;2023-09-19T17:52:57;100498.75;;;21.41;53.19
76122;BME280;70471;53.200;6.080;2023-09-19T17:57:51;100496.47;;;21.43;53.66
76122;BME280;70471;53.200;6.080;2023-09-19T18:02:44;100504.66;;;21.48;53.81
76122;BME280;70471;53.200;6.080;2023-09-19T18:07:36;100506.66;;;21.56;53.83
76122;BME280;70471;53.200;6.080;2023-09-19T18:12:28;100501.28;;;21.60;53.47
76122;BME280;70471;53.200;6.080;2023-09-19T18:17:20;100515.31;;;21.63;53.72
76122;BME280;70471;53.200;6.080;2023-09-19T18:22:15;100524.63;;;21.68;53.92
76122;BME280;70471;53.200;6.080;2023-09-19T18:27:07;100527.88;;;21.70;53.32
76122;BME280;70471;53.200;6.080;2023-09-19T18:32:00;100521.22;;;21.71;53.36
76122;BME280;70471;53.200;6.080;2023-09-19T18:36:52;100514.19;;;21.73;53.48
76122;BME280;70471;53.200;6.080;2023-09-19T18:41:46;100519.75;;;21.73;53.58
76122;BME280;70471;53.200;6.080;2023-09-19T18:46:38;100511.94;;;21.75;53.91
76122;BME280;70471;53.200;6.080;2023-09-19T18:51:33;100519.31;;;21.80;53.43
76122;BME280;70471;53.200;6.080;2023-09-19T18:56:26;100540.16;;;21.77;53.62
76122;BME280;70471;53.200;6.080;2023-09-19T19:01:19;100527.13;;;21.78;53.76
76122;BME280;70471;53.200;6.080;2023-09-19T19:06:13;100530.75;;;21.87;53.63
76122;BME280;70471;53.200;6.080;2023-09-19T19:11:06;100528.97;;;21.91;53.21
76122;BME280;70471;53.200;6.080;2023-09-19T19:16:00;100533.38;;;21.92;53.25
76122;BME280;70471;53.200;6.080;2023-09-19T19:20:58;100526.69;;;21.93;53.60
76122;BME280;70471;53.200;6.080;2023-09-19T19:25:50;100521.16;;;21.93;53.49
76122;BME280;70471;53.200;6.080;2023-09-19T19:30:44;100524.41;;;21.95;53.62
76122;BME280;70471;53.200;6.080;2023-09-19T19:35:38;100518.84;;;21.95;53.49
76122;BME280;70471;53.200;6.080;2023-09-19T19:40:38;100542.06;;;21.99;53.48
76122;BME280;70471;53.200;6.080;2023-09-19T19:45:30;100524.28;;;22.01;53.29
76122;BME280;70471;53.200;6.080;2023-09-19T19:50:25;100531.13;;;22.03;52.97
76122;BME280;70471;53.200;6.080;2023-09-19T19:55:21;100525.75;;;22.07;53.24
76122;BME280;70471;53.200;6.080;2023-09-19T20:00:19;100542.06;;;22.08;53.30
76122;BME280;70471;53.200;6.080;2023-09-19T20:05:13;100533.41;;;22.10;53.25
76122;BME280;70471;53.200;6.080;2023-09-19T20:10:08;100542.56;;;22.10;53.18
76122;BME280;70471;53.200;6.080;2023-09-19T20:15:03;100536.06;;;22.15;53.18
76122;BME280;70471;53.200;6.080;2023-09-19T20:20:03;100538.00;;;22.14;52.92
76122;BME280;70471;53.200;6.080;2023-09-19T20:25:03;100550.06;;;22.10;52.71
76122;BME280;70471;53.200;6.080;2023-09-19T20:29:56;100539.28;;;22.08;53.04
76122;BME280;70471;53.200;6.080;2023-09-19T20:34:48;100550.72;;;22.07;52.80
76122;BME280;70471;53.200;6.080;2023-09-19T20:39:42;100527.22;;;22.04;52.50
76122;BME280;70471;53.200;6.080;2023-09-19T20:44:34;100530.31;;;22.03;52.68
76122;BME280;70471;53.200;6.080;2023-09-19T20:49:26;100532.59;;;22.01;52.73
76122;BME280;70471;53.200;6.080;2023-09-19T20:54:17;100529.31;;;21.98;53.01
76122;BME280;70471;53.200;6.080;2023-09-19T20:59:10;100526.06;;;21.96;53.12
76122;BME280;70471;53.200;6.080;2023-09-19T21:04:01;100524.09;;;21.97;52.64
76122;BME280;70471;53.200;6.080;2023-09-19T21:08:54;100529.94;;;21.95;52.79
76122;BME280;70471;53.200;6.080;2023-09-19T21:13:47;100543.34;;;21.93;52.86
76122;BME280;70471;53.200;6.080;2023-09-19T21:18:40;100529.78;;;21.92;52.80
76122;BME280;70471;53.200;6.080;2023-09-19T21:23:32;100542.34;;;21.89;53.04
76122;BME280;70471;53.200;6.080;2023-09-19T21:28:23;100541.84;;;21.87;53.04
76122;BME280;70471;53.200;6.080;2023-09-19T21:33:15;100537.94;;;21.88;52.82
76122;BME280;70471;53.200;6.080;2023-09-19T21:38:09;100516.88;;;21.87;53.13
76122;BME280;70471;53.200;6.080;2023-09-19T21:43:01;100539.38;;;21.86;52.97
76122;BME280;70471;53.200;6.080;2023-09-19T21:47:55;100532.56;;;21.83;52.88
76122;BME280;70471;53.200;6.080;2023-09-19T21:52:47;100534.47;;;21.83;52.76
76122;BME280;70471;53.200;6.080;2023-09-19T21:57:39;100516.56;;;21.80;52.73
76122;BME280;70471;53.200;6.080;2023-09-19T22:02:31;100524.34;;;21.78;52.66
76122;BME280;70471;53.200;6.080;2023-09-19T22:07:24;100526.59;;;21.76;52.99
76122;BME280;70471;53.200;6.080;2023-09-19T22:12:15;100525.81;;;21.75;52.61
76122;BME280;70471;53.200;6.080;2023-09-19T22:17:09;100524.00;;;21.71;53.14
76122;BME280;70471;53.200;6.080;2023-09-19T22:22:03;100534.44;;;21.74;53.12
76122;BME280;70471;53.200;6.080;2023-09-19T22:26:58;100534.75;;;21.72;52.87
76122;BME280;70471;53.200;6.080;2023-09-19T22:31:50;100534.59;;;21.69;52.83
76122;BME280;70471;53.200;6.080;2023-09-19T22:36:42;100535.72;;;21.68;53.25
76122;BME280;70471;53.200;6.080;2023-09-19T22:41:34;100529.69;;;21.66;53.09
76122;BME280;70471;53.200;6.080;2023-09-19T22:46:25;100529.16;;;21.63;53.27
76122;BME280;70471;53.200;6.080;2023-09-19T22:51:17;100536.69;;;21.63;53.50
76122;BME280;70471;53.200;6.080;2023-09-19T22:56:14;100541.72;;;21.61;53.18
76122;BME280;70471;53.200;6.080;2023-09-19T23:01:10;100534.84;;;21.58;53.41
76122;BME280;70471;53.200;6.080;2023-09-19T23:06:08;100532.56;;;21.60;53.11
76122;BME280;70471;53.200;6.080;2023-09-19T23:11:04;100548.72;;;21.58;53.50
76122;BME280;70471;53.200;6.080;2023-09-19T23:16:02;100537.63;;;21.58;53.45
76122;BME280;70471;53.200;6.080;2023-09-19T23:20:55;100555.38;;;21.57;53.16
76122;BME280;70471;53.200;6.080;2023-09-19T23:25:54;100549.34;;;21.55;53.31
76122;BME280;70471;53.200;6.080;2023-09-19T23:30:46;100547.38;;;21.56;53.41
76122;BME280;70471;53.200;6.080;2023-09-19T23:35:44;100553.25;;;21.54;53.59
76122;BME280;70471;53.200;6.080;2023-09-19T23:40:36;100557.19;;;21.53;53.15
76122;BME280;70471;53.200;6.080;2023-09-19T23:45:29;100561.09;;;21.52;53.29
76122;BME280;70471;53.200;6.080;2023-09-19T23:50:20;100563.38;;;21.50;53.69
76122;BME280;70471;53.200;6.080;2023-09-19T23:55:16;100567.25;;;21.49;53.48
